createdAt,value
2017-07-23T00:00:50.474Z,2.33
2017-07-23T00:03:17.230Z,2.80
2017-07-23T00:05:44.079Z,2.87
2017-07-23T00:08:10.829Z,2.80
2017-07-23T00:13:32.367Z,2.93
2017-07-23T00:15:59.101Z,3.30
2017-07-23T00:18:27.415Z,4.07
2017-07-23T00:20:54.171Z,3.37
2017-07-23T00:23:20.951Z,3.90
2017-07-23T00:25:47.760Z,3.67
2017-07-23T00:28:14.535Z,4.17
2017-07-23T00:30:41.311Z,3.67
2017-07-23T00:33:08.126Z,3.30
2017-07-23T00:35:34.886Z,3.60
2017-07-23T00:38:01.692Z,3.70
2017-07-23T00:40:28.488Z,3.97
2017-07-23T00:42:55.243Z,3.50
2017-07-23T00:45:22.017Z,3.40
2017-07-23T00:47:48.859Z,3.73
2017-07-23T00:50:15.643Z,3.87
2017-07-23T00:52:42.429Z,3.20
2017-07-23T00:55:09.303Z,3.40
2017-07-23T00:57:36.160Z,3.63
2017-07-23T01:00:03.033Z,3.60
2017-07-23T01:02:29.845Z,3.70
2017-07-23T01:04:56.608Z,3.50
2017-07-23T01:07:23.371Z,4.00
2017-07-23T01:09:50.185Z,3.97
2017-07-23T01:12:17.059Z,3.80
2017-07-23T01:14:43.840Z,3.40
2017-07-23T01:17:10.687Z,3.60
2017-07-23T01:19:37.484Z,3.27
2017-07-23T01:22:04.242Z,2.70
2017-07-23T01:24:31.017Z,3.57
2017-07-23T01:26:57.807Z,3.80
2017-07-23T01:29:24.572Z,2.50
2017-07-23T01:31:51.354Z,2.63
2017-07-23T01:34:18.191Z,3.10
2017-07-23T01:36:44.963Z,3.00
2017-07-23T01:39:11.785Z,3.47
2017-07-23T01:41:38.584Z,2.67
2017-07-23T01:44:05.371Z,3.27
2017-07-23T01:46:32.165Z,3.03
2017-07-23T01:48:59.041Z,3.40
2017-07-23T01:51:26.004Z,2.67
2017-07-23T01:53:52.772Z,3.77
2017-07-23T01:56:19.618Z,2.70
2017-07-23T01:58:46.667Z,3.30
2017-07-23T02:01:13.444Z,3.20
2017-07-23T02:03:40.207Z,2.90
2017-07-23T02:06:07.096Z,3.20
2017-07-23T02:08:33.960Z,2.77
2017-07-23T02:11:00.784Z,2.67
2017-07-23T02:13:27.751Z,3.20
2017-07-23T02:15:54.632Z,3.23
2017-07-23T02:18:21.496Z,3.40
2017-07-23T02:20:48.267Z,2.97
2017-07-23T02:23:15.096Z,3.47
2017-07-23T02:25:44.060Z,3.20
2017-07-23T02:28:10.929Z,3.97
2017-07-23T02:30:37.819Z,3.20
2017-07-23T02:33:04.812Z,3.17
2017-07-23T02:35:31.612Z,3.70
2017-07-23T02:37:58.448Z,3.03
2017-07-23T02:40:25.219Z,3.87
2017-07-23T02:42:52.016Z,3.63
2017-07-23T02:45:18.854Z,3.07
2017-07-23T02:47:45.587Z,3.83
2017-07-23T02:50:12.363Z,3.93
2017-07-23T02:52:39.204Z,3.40
2017-07-23T02:55:06.126Z,3.50
2017-07-23T02:57:32.900Z,3.30
2017-07-23T02:59:59.675Z,3.87
2017-07-23T03:02:26.515Z,3.50
2017-07-23T03:04:53.296Z,2.87
2017-07-23T03:07:20.072Z,3.10
2017-07-23T03:09:46.908Z,3.37
2017-07-23T03:12:13.691Z,3.10
2017-07-23T03:14:40.452Z,3.60
2017-07-23T03:17:07.261Z,3.23
2017-07-23T03:19:34.063Z,3.27
2017-07-23T03:22:00.850Z,4.20
2017-07-23T03:24:27.764Z,4.33
2017-07-23T03:26:54.585Z,3.97
2017-07-23T03:29:21.376Z,4.00
2017-07-23T03:31:48.201Z,4.27
2017-07-23T03:34:14.956Z,4.20
2017-07-23T03:36:41.789Z,4.30
2017-07-23T03:39:08.672Z,4.00
2017-07-23T03:41:35.495Z,3.70
2017-07-23T03:44:02.305Z,4.33
2017-07-23T03:46:29.116Z,4.50
2017-07-23T03:48:55.924Z,4.60
2017-07-23T03:51:22.703Z,3.80
2017-07-23T03:53:49.817Z,4.47
2017-07-23T03:56:16.615Z,4.97
2017-07-23T03:58:43.399Z,5.07
2017-07-23T04:01:10.228Z,4.90
2017-07-23T04:03:37.008Z,5.43
2017-07-23T04:06:03.757Z,4.83
2017-07-23T04:08:30.612Z,5.27
2017-07-23T04:10:57.438Z,5.47
2017-07-23T04:13:24.215Z,6.20
2017-07-23T04:15:51.016Z,5.70
2017-07-23T04:18:17.808Z,6.57
2017-07-23T04:20:44.569Z,4.90
2017-07-23T04:23:11.380Z,6.20
2017-07-23T04:25:42.248Z,5.40
2017-07-23T04:28:09.023Z,5.20
2017-07-23T04:30:35.858Z,6.03
2017-07-23T04:33:02.629Z,4.87
2017-07-23T04:35:29.391Z,5.00
2017-07-23T04:37:56.212Z,5.57
2017-07-23T04:40:22.969Z,5.90
2017-07-23T04:42:49.709Z,5.17
2017-07-23T04:45:16.549Z,5.73
2017-07-23T04:47:43.351Z,5.47
2017-07-23T04:50:10.161Z,5.40
2017-07-23T04:52:37.009Z,5.37
2017-07-23T04:55:03.961Z,6.03
2017-07-23T04:57:30.728Z,5.47
2017-07-23T04:59:57.501Z,5.70
2017-07-23T05:02:24.369Z,5.20
2017-07-23T05:04:51.163Z,5.97
2017-07-23T05:07:17.952Z,6.27
2017-07-23T05:09:44.731Z,5.10
2017-07-23T05:12:11.526Z,5.83
2017-07-23T05:14:39.960Z,5.53
2017-07-23T05:17:06.799Z,6.10
2017-07-23T05:19:33.565Z,5.50
2017-07-23T05:22:00.565Z,4.90
2017-07-23T05:24:27.338Z,5.27
2017-07-23T05:26:54.096Z,5.53
2017-07-23T05:29:20.908Z,5.33
2017-07-23T05:31:47.761Z,5.20
2017-07-23T05:34:14.543Z,5.47
2017-07-23T05:36:41.316Z,4.70
2017-07-23T05:39:08.116Z,5.90
2017-07-23T05:41:34.924Z,5.63
2017-07-23T05:44:02.002Z,5.93
2017-07-23T05:46:29.171Z,6.40
2017-07-23T05:48:55.983Z,4.93
2017-07-23T05:51:22.890Z,5.67
2017-07-23T05:53:49.804Z,5.67
2017-07-23T05:56:16.625Z,5.63
2017-07-23T05:58:43.417Z,6.13
2017-07-23T06:01:10.293Z,5.27
2017-07-23T06:03:37.112Z,5.33
2017-07-23T06:06:04.021Z,5.17
2017-07-23T06:08:31.714Z,5.13
2017-07-23T06:14:04.069Z,5.57
2017-07-23T06:19:33.919Z,5.70
2017-07-23T06:27:57.273Z,6.00
2017-07-23T06:30:39.231Z,5.77
2017-07-23T06:33:08.965Z,5.20
2017-07-23T06:35:39.291Z,5.87
2017-07-23T06:38:06.256Z,6.80
2017-07-23T06:40:33.424Z,6.00
2017-07-23T06:43:01.062Z,5.60
2017-07-23T06:45:27.958Z,5.80
2017-07-23T06:47:54.795Z,7.03
2017-07-23T06:50:21.907Z,6.30
2017-07-23T06:52:49.747Z,5.40
2017-07-23T06:55:17.785Z,5.83
2017-07-23T06:57:44.598Z,6.70
2017-07-23T07:00:11.375Z,6.80
2017-07-23T07:02:38.245Z,5.53
2017-07-23T07:05:05.042Z,5.57
2017-07-23T07:07:31.857Z,6.40
2017-07-23T07:09:58.825Z,5.73
2017-07-23T07:12:28.320Z,5.53
2017-07-23T07:14:55.243Z,5.53
2017-07-23T07:17:22.088Z,5.63
2017-07-23T07:19:48.950Z,5.53
2017-07-23T07:22:15.880Z,6.03
2017-07-23T07:24:48.256Z,5.70
2017-07-23T07:27:15.489Z,5.90
2017-07-23T07:29:42.658Z,5.00
2017-07-23T07:32:09.484Z,5.23
2017-07-23T07:34:41.627Z,4.83
2017-07-23T07:37:08.631Z,4.80
2017-07-23T07:39:35.908Z,5.63
2017-07-23T07:42:02.780Z,4.20
2017-07-23T07:44:29.660Z,4.90
2017-07-23T07:46:56.647Z,5.00
2017-07-23T07:49:23.551Z,4.60
2017-07-23T07:51:50.489Z,4.90
2017-07-23T07:54:17.529Z,4.70
2017-07-23T08:05:02.685Z,4.07
2017-07-23T08:07:31.528Z,4.63
2017-07-23T08:09:58.889Z,5.80
2017-07-23T08:12:26.794Z,4.90
2017-07-23T08:14:53.734Z,4.87
2017-07-23T08:17:21.588Z,5.10
2017-07-23T08:19:52.142Z,4.80
2017-07-23T08:28:04.742Z,4.80
2017-07-23T08:30:31.606Z,4.30
2017-07-23T08:32:58.567Z,4.83
2017-07-23T08:35:25.469Z,5.50
2017-07-23T08:37:52.324Z,5.00
2017-07-23T08:40:19.320Z,5.27
2017-07-23T08:42:46.188Z,5.67
2017-07-23T08:45:13.053Z,5.10
2017-07-23T08:47:39.989Z,4.67
2017-07-23T08:50:06.864Z,4.80
2017-07-23T08:52:33.769Z,5.40
2017-07-23T08:55:00.915Z,4.47
2017-07-23T08:57:27.824Z,4.80
2017-07-23T08:59:54.903Z,4.23
2017-07-23T09:02:21.773Z,4.70
2017-07-23T09:04:49.639Z,4.77
2017-07-23T09:07:16.673Z,5.20
2017-07-23T09:09:43.535Z,4.97
2017-07-23T09:12:10.374Z,5.10
2017-07-23T09:14:37.264Z,5.30
2017-07-23T09:17:04.174Z,5.17
2017-07-23T09:19:31.041Z,5.00
2017-07-23T09:21:57.844Z,4.60
2017-07-23T09:24:24.701Z,4.63
2017-07-23T09:26:51.576Z,4.10
2017-07-23T09:29:18.420Z,4.53
2017-07-23T09:31:45.338Z,4.80
2017-07-23T09:34:12.217Z,4.17
2017-07-23T09:36:39.180Z,4.30
2017-07-23T09:39:05.988Z,4.70
2017-07-23T09:41:32.830Z,4.57
2017-07-23T09:43:59.694Z,4.23
2017-07-23T09:46:28.199Z,4.60
2017-07-23T09:48:55.004Z,4.70
2017-07-23T09:51:21.797Z,4.80
2017-07-23T09:53:48.649Z,4.03
2017-07-23T09:56:15.466Z,5.00
2017-07-23T09:58:42.257Z,4.93
2017-07-23T10:01:09.080Z,5.07
2017-07-23T10:03:35.897Z,4.80
2017-07-23T10:06:02.992Z,4.50
2017-07-23T10:08:29.844Z,4.63
2017-07-23T10:10:56.697Z,4.30
2017-07-23T10:13:23.629Z,4.47
2017-07-23T10:15:50.493Z,4.77
2017-07-23T10:18:17.366Z,4.70
2017-07-23T10:20:44.271Z,4.43
2017-07-23T10:23:11.105Z,5.17
2017-07-23T10:25:37.988Z,4.70
2017-07-23T10:28:04.847Z,4.80
2017-07-23T10:30:31.757Z,4.97
2017-07-23T10:32:58.569Z,5.97
2017-07-23T10:35:25.366Z,4.87
2017-07-23T10:37:52.212Z,4.63
2017-07-23T10:40:19.021Z,4.70
2017-07-23T10:42:45.809Z,4.60
2017-07-23T10:45:12.736Z,4.80
2017-07-23T10:47:39.646Z,4.67
2017-07-23T10:50:07.085Z,5.20
2017-07-23T10:52:34.239Z,4.77
2017-07-23T10:55:01.136Z,5.40
2017-07-23T10:57:27.920Z,4.67
2017-07-23T10:59:54.757Z,4.27
2017-07-23T11:02:21.618Z,5.43
2017-07-23T11:04:48.500Z,5.20
2017-07-23T11:07:15.386Z,4.90
2017-07-23T11:09:42.177Z,3.90
2017-07-23T11:12:08.981Z,4.50
2017-07-23T11:14:35.837Z,3.90
2017-07-23T11:17:02.713Z,4.40
2017-07-23T11:19:29.578Z,3.80
2017-07-23T11:21:56.457Z,3.80
2017-07-23T11:24:23.357Z,3.70
2017-07-23T11:26:50.234Z,4.40
2017-07-23T11:29:17.137Z,3.83
2017-07-23T11:31:45.075Z,4.13
2017-07-23T11:34:12.841Z,3.97
2017-07-23T11:36:39.658Z,3.90
2017-07-23T11:39:06.544Z,4.77
2017-07-23T11:41:33.347Z,3.87
2017-07-23T11:44:00.182Z,3.83
2017-07-23T11:46:27.124Z,3.73
2017-07-23T11:48:53.998Z,4.57
2017-07-23T11:51:20.927Z,3.60
2017-07-23T11:53:47.803Z,4.13
2017-07-23T11:56:14.914Z,3.83
2017-07-23T11:58:41.740Z,3.90
2017-07-23T12:01:08.533Z,4.60
2017-07-23T12:03:35.478Z,3.97
2017-07-23T12:06:02.344Z,3.77
2017-07-23T12:08:29.275Z,4.63
2017-07-23T12:10:56.179Z,4.27
2017-07-23T12:13:23.038Z,4.63
2017-07-23T12:15:49.877Z,4.10
2017-07-23T12:18:16.674Z,4.00
2017-07-23T12:20:43.540Z,3.60
2017-07-23T12:23:10.491Z,4.10
2017-07-23T12:25:37.353Z,3.57
2017-07-23T12:28:04.210Z,4.40
2017-07-23T12:30:31.058Z,3.60
2017-07-23T12:32:57.918Z,4.17
2017-07-23T12:35:24.786Z,3.40
2017-07-23T12:37:51.718Z,3.20
2017-07-23T12:40:18.593Z,3.93
2017-07-23T12:42:45.470Z,3.27
2017-07-23T12:45:12.411Z,3.70
2017-07-23T12:47:39.250Z,3.60
2017-07-23T12:50:06.102Z,3.90
2017-07-23T12:52:32.963Z,3.90
2017-07-23T12:54:59.785Z,3.83
2017-07-23T12:57:26.750Z,3.60
2017-07-23T12:59:53.600Z,3.27
2017-07-23T13:02:20.452Z,2.87
2017-07-23T13:04:47.331Z,3.83
2017-07-23T13:07:14.259Z,3.23
2017-07-23T13:09:41.163Z,3.13
2017-07-23T13:12:08.208Z,3.13
2017-07-23T13:14:35.092Z,3.40
2017-07-23T13:17:01.954Z,3.00
2017-07-23T13:19:28.901Z,3.53
2017-07-23T13:21:55.727Z,3.70
2017-07-23T13:24:22.509Z,3.10
2017-07-23T13:26:49.379Z,3.57
2017-07-23T13:29:16.248Z,3.40
2017-07-23T13:31:43.068Z,4.83
2017-07-23T13:34:09.989Z,3.60
2017-07-23T13:36:38.114Z,4.10
2017-07-23T13:39:04.958Z,4.33
2017-07-23T13:41:31.820Z,3.80
2017-07-23T13:43:58.732Z,3.80
2017-07-23T13:46:25.633Z,4.10
2017-07-23T13:48:52.494Z,3.27
2017-07-23T13:51:19.443Z,3.50
2017-07-23T13:53:46.396Z,3.50
2017-07-23T13:56:13.268Z,3.80
2017-07-23T13:58:40.247Z,4.17
2017-07-23T14:01:07.497Z,3.53
2017-07-23T14:03:34.371Z,5.40
2017-07-23T14:06:01.180Z,4.10
2017-07-23T14:08:28.044Z,3.80
2017-07-23T14:10:54.844Z,3.40
2017-07-23T14:13:21.722Z,4.10
2017-07-23T14:15:49.404Z,4.10
2017-07-23T14:18:16.340Z,3.67
2017-07-23T14:20:43.205Z,3.63
2017-07-23T14:23:10.083Z,3.30
2017-07-23T14:25:36.981Z,4.03
2017-07-23T14:28:03.853Z,4.43
2017-07-23T14:30:31.315Z,4.43
2017-07-23T14:32:58.179Z,3.60
2017-07-23T14:35:27.121Z,4.17
2017-07-23T14:37:54.462Z,3.80
2017-07-23T14:40:21.357Z,4.00
2017-07-23T14:42:48.284Z,4.13
2017-07-23T14:45:15.089Z,4.10
2017-07-23T14:47:41.883Z,4.10
2017-07-23T14:50:09.028Z,4.40
2017-07-23T14:52:35.825Z,3.93
2017-07-23T14:55:02.653Z,4.07
2017-07-23T14:57:30.141Z,4.30
2017-07-23T14:59:57.112Z,3.80
2017-07-23T15:02:23.987Z,3.80
2017-07-23T15:04:51.167Z,4.80
2017-07-23T15:07:18.114Z,5.13
2017-07-23T15:09:44.986Z,4.00
2017-07-23T15:12:11.921Z,4.67
2017-07-23T15:14:38.748Z,4.47
2017-07-23T15:17:05.526Z,5.30
2017-07-23T15:19:32.425Z,4.07
2017-07-23T15:21:59.819Z,4.23
2017-07-23T15:24:26.683Z,4.30
2017-07-23T15:26:53.549Z,4.90
2017-07-23T15:29:20.383Z,4.20
2017-07-23T15:31:47.168Z,3.93
2017-07-23T15:34:14.067Z,5.00
2017-07-23T15:36:40.844Z,4.50
2017-07-23T15:39:07.674Z,4.53
2017-07-23T15:41:34.571Z,4.67
2017-07-23T15:44:01.405Z,4.73
2017-07-23T15:46:28.312Z,4.70
2017-07-23T15:48:55.211Z,4.23
2017-07-23T15:51:22.082Z,5.07
2017-07-23T15:53:48.870Z,4.13
2017-07-23T15:56:16.084Z,4.83
2017-07-23T15:58:42.907Z,5.93
2017-07-23T16:01:09.704Z,5.07
2017-07-23T16:03:36.487Z,4.77
2017-07-23T16:06:03.655Z,4.83
2017-07-23T16:08:30.463Z,5.60
2017-07-23T16:10:57.336Z,5.20
2017-07-23T16:13:24.188Z,5.87
2017-07-23T16:15:51.027Z,5.23
2017-07-23T16:18:17.990Z,5.77
2017-07-23T16:20:44.819Z,4.67
2017-07-23T16:23:11.732Z,4.60
2017-07-23T16:25:38.654Z,5.53
2017-07-23T16:28:05.496Z,5.23
2017-07-23T16:30:32.342Z,5.73
2017-07-23T16:32:59.255Z,5.90
2017-07-23T16:35:26.166Z,5.80
2017-07-23T16:37:53.073Z,5.83
2017-07-23T16:40:19.942Z,5.30
2017-07-23T16:42:46.901Z,6.00
2017-07-23T16:45:13.871Z,6.17
2017-07-23T16:47:40.705Z,6.67
2017-07-23T16:50:07.596Z,6.80
2017-07-23T16:52:34.575Z,6.03
2017-07-23T16:55:01.452Z,6.40
2017-07-23T16:57:28.505Z,6.17
2017-07-23T16:59:55.398Z,6.73
2017-07-23T17:02:22.381Z,6.50
2017-07-23T17:04:49.240Z,6.90
2017-07-23T17:07:16.121Z,5.83
2017-07-23T17:09:43.633Z,6.47
2017-07-23T17:12:10.632Z,5.73
2017-07-23T17:14:39.778Z,6.37
2017-07-23T17:17:06.693Z,6.37
2017-07-23T17:19:33.884Z,7.03
2017-07-23T17:22:00.741Z,6.17
2017-07-23T17:24:30.661Z,6.20
2017-07-23T17:26:57.519Z,5.80
2017-07-23T17:29:24.380Z,5.90
2017-07-23T17:31:51.288Z,5.80
2017-07-23T17:34:18.133Z,5.83
2017-07-23T17:36:45.042Z,5.67
2017-07-23T17:39:11.879Z,5.50
2017-07-23T17:41:38.814Z,5.80
2017-07-23T17:44:05.904Z,5.77
2017-07-23T17:46:32.849Z,5.90
2017-07-23T17:48:59.876Z,6.00
2017-07-23T17:51:26.805Z,5.60
2017-07-23T17:53:54.521Z,5.70
2017-07-23T17:56:21.413Z,6.30
2017-07-23T17:58:48.371Z,5.90
2017-07-23T18:01:15.239Z,6.23
2017-07-23T18:03:42.092Z,5.97
2017-07-23T18:06:09.079Z,5.87
2017-07-23T18:08:36.049Z,6.10
2017-07-23T18:11:02.924Z,6.37
2017-07-23T18:13:29.803Z,6.00
2017-07-23T18:15:56.751Z,5.80
2017-07-23T18:18:23.628Z,7.27
2017-07-23T18:20:50.600Z,7.87
2017-07-23T18:23:17.474Z,6.20
2017-07-23T18:25:44.265Z,6.30
2017-07-23T18:28:11.323Z,6.33
2017-07-23T18:30:38.484Z,7.00
2017-07-23T18:33:05.338Z,6.20
2017-07-23T18:35:32.117Z,7.07
2017-07-23T18:37:58.881Z,6.60
2017-07-23T18:40:25.699Z,6.77
2017-07-23T18:42:52.469Z,7.07
2017-07-23T18:45:19.315Z,6.80
2017-07-23T18:47:46.095Z,6.83
2017-07-23T18:52:45.630Z,7.17
2017-07-23T18:55:12.384Z,7.13
2017-07-23T18:57:39.505Z,6.73
2017-07-23T19:00:06.489Z,6.77
2017-07-23T19:02:33.356Z,6.50
2017-07-23T19:05:00.398Z,7.70
2017-07-23T19:07:30.142Z,7.07
2017-07-23T19:09:56.994Z,6.90
2017-07-23T19:12:23.947Z,7.50
2017-07-23T19:14:50.825Z,7.60
2017-07-23T19:17:17.684Z,7.97
2017-07-23T19:19:44.515Z,7.00
2017-07-23T19:22:11.305Z,6.87
2017-07-23T19:24:38.135Z,6.97
2017-07-23T19:27:04.976Z,7.13
2017-07-23T19:29:31.811Z,7.07
2017-07-23T19:31:58.696Z,5.83
2017-07-23T19:34:25.619Z,6.73
2017-07-23T19:36:52.492Z,7.03
2017-07-23T19:39:19.654Z,6.93
2017-07-23T19:41:47.078Z,7.47
2017-07-23T19:44:15.785Z,7.07
2017-07-23T19:46:43.529Z,8.17
2017-07-23T19:49:10.840Z,8.40
2017-07-23T19:51:38.190Z,8.07
2017-07-23T19:54:05.569Z,7.07
2017-07-23T19:56:34.893Z,6.83
2017-07-23T19:59:02.940Z,6.73
2017-07-23T20:01:33.409Z,6.90
2017-07-23T20:04:01.622Z,6.93
2017-07-23T20:06:28.510Z,7.10
2017-07-23T20:08:55.302Z,6.83
2017-07-23T20:11:22.145Z,7.20
2017-07-23T20:13:49.020Z,6.90
2017-07-23T20:16:17.094Z,8.07
2017-07-23T20:18:44.469Z,8.27
2017-07-23T20:21:11.311Z,6.93
2017-07-23T20:23:38.097Z,8.07
2017-07-23T20:26:04.938Z,7.50
2017-07-23T20:28:31.714Z,8.50
2017-07-23T20:30:58.510Z,7.60
2017-07-23T20:33:25.350Z,7.87
2017-07-23T20:35:52.202Z,7.87
2017-07-23T20:38:18.991Z,7.43
2017-07-23T20:40:45.904Z,6.50
2017-07-23T20:43:15.224Z,7.83
2017-07-23T20:45:42.020Z,7.60
2017-07-23T20:48:09.899Z,8.23
2017-07-23T20:50:36.781Z,7.07
2017-07-23T20:53:03.649Z,7.50
2017-07-23T20:55:30.639Z,7.83
2017-07-23T20:57:57.442Z,8.00
2017-07-23T21:00:24.249Z,7.50
2017-07-23T21:02:51.162Z,7.27
2017-07-23T21:05:17.975Z,6.80
2017-07-23T21:07:44.768Z,7.13
2017-07-23T21:10:11.620Z,7.67
2017-07-23T21:12:38.424Z,7.77
2017-07-23T21:15:05.212Z,7.70
2017-07-23T21:17:32.507Z,7.10
2017-07-23T21:19:59.787Z,6.87
2017-07-23T21:22:26.718Z,7.60
2017-07-23T21:24:53.816Z,7.40
2017-07-23T21:27:21.161Z,7.27
2017-07-23T21:29:49.379Z,7.07
2017-07-23T21:32:16.186Z,6.53
2017-07-23T21:34:43.202Z,6.90
2017-07-23T21:37:10.238Z,6.23
2017-07-23T21:39:37.584Z,6.80
2017-07-23T21:42:05.443Z,6.90
2017-07-23T21:44:32.347Z,7.57
2017-07-23T21:47:00.148Z,7.70
2017-07-23T21:49:27.095Z,7.10
2017-07-23T21:51:55.699Z,7.50
2017-07-23T21:54:22.673Z,7.90
2017-07-23T21:56:50.055Z,7.77
2017-07-23T21:59:17.842Z,7.00
2017-07-23T22:01:44.842Z,7.00
2017-07-23T22:04:12.018Z,7.50
2017-07-23T22:06:39.311Z,6.60
2017-07-23T22:09:06.769Z,6.73
2017-07-23T22:11:33.575Z,7.13
2017-07-23T22:14:00.439Z,8.50
2017-07-23T22:16:27.275Z,7.70
2017-07-23T22:18:54.561Z,6.97
2017-07-23T22:21:21.361Z,7.53
2017-07-23T22:23:48.267Z,7.10
2017-07-23T22:26:15.128Z,7.07
2017-07-23T22:28:42.554Z,7.20
2017-07-23T22:31:09.486Z,6.53
2017-07-23T22:33:37.761Z,6.47
2017-07-23T22:36:04.645Z,7.50
2017-07-23T22:38:31.524Z,7.43
2017-07-23T22:40:58.388Z,6.93
2017-07-23T22:43:25.232Z,7.73
2017-07-23T22:45:52.071Z,7.10
2017-07-23T22:48:18.880Z,7.77
2017-07-23T22:50:45.776Z,7.27
2017-07-23T22:53:12.556Z,7.37
2017-07-23T22:55:39.414Z,6.20
2017-07-23T22:58:06.303Z,6.70
2017-07-23T23:00:33.157Z,6.77
2017-07-23T23:03:00.446Z,7.30
2017-07-23T23:05:30.085Z,7.20
2017-07-23T23:07:56.870Z,7.17
2017-07-23T23:10:23.726Z,7.57
2017-07-23T23:12:50.931Z,7.57
2017-07-23T23:15:17.788Z,7.70
2017-07-23T23:17:48.608Z,7.37
2017-07-23T23:20:15.561Z,7.10
2017-07-23T23:22:42.400Z,6.37
2017-07-23T23:25:09.287Z,6.60
2017-07-23T23:27:36.087Z,5.30
2017-07-23T23:30:03.108Z,6.53
2017-07-23T23:32:29.954Z,5.80
2017-07-23T23:34:56.877Z,6.20
2017-07-23T23:37:23.722Z,5.93
2017-07-23T23:39:50.659Z,6.20
2017-07-23T23:42:17.455Z,6.97
2017-07-23T23:44:44.296Z,5.67
2017-07-23T23:47:11.177Z,5.53
2017-07-23T23:49:38.024Z,5.97
2017-07-23T23:52:04.885Z,6.03
2017-07-23T23:54:31.822Z,5.50
2017-07-23T23:56:58.784Z,5.60
2017-07-23T23:59:25.644Z,5.37
